sensor_id;sensor_type;location;lat;lon;timestamp;pressure;altitude;pressure_sealevel;temperature
72405;BMP280;60395;52.020;113.548;2022-07-17T00:02:06;92084.63;;;41.09
72405;BMP280;60395;52.020;113.548;2022-07-17T00:05:09;92081.19;;;41.22
72405;BMP280;60395;52.020;113.548;2022-07-17T00:08:12;92084.38;;;40.34
72405;BMP280;60395;52.020;113.548;2022-07-17T00:11:15;92083.78;;;40.47
72405;BMP280;60395;52.020;113.548;2022-07-17T00:14:18;92089.91;;;40.66
72405;BMP280;60395;52.020;113.548;2022-07-17T00:17:21;92089.53;;;41.08
72405;BMP280;60395;52.020;113.548;2022-07-17T00:20:27;92085.41;;;41.48
72405;BMP280;60395;52.020;113.548;2022-07-17T00:23:30;92092.31;;;40.77
72405;BMP280;60395;52.020;113.548;2022-07-17T00:26:33;92090.06;;;39.60
72405;BMP280;60395;52.020;113.548;2022-07-17T00:29:36;92090.31;;;38.93
72405;BMP280;60395;52.020;113.548;2022-07-17T00:32:40;92089.00;;;38.40
72405;BMP280;60395;52.020;113.548;2022-07-17T00:35:43;92092.13;;;37.84
72405;BMP280;60395;52.020;113.548;2022-07-17T00:38:46;92091.72;;;37.04
72405;BMP280;60395;52.020;113.548;2022-07-17T00:41:49;92087.47;;;36.64
72405;BMP280;60395;52.020;113.548;2022-07-17T00:44:53;92093.66;;;36.34
72405;BMP280;60395;52.020;113.548;2022-07-17T00:48:03;92089.06;;;36.32
72405;BMP280;60395;52.020;113.548;2022-07-17T00:51:07;92085.59;;;36.63
72405;BMP280;60395;52.020;113.548;2022-07-17T00:54:11;92086.97;;;36.93
72405;BMP280;60395;52.020;113.548;2022-07-17T00:57:16;92088.53;;;37.17
72405;BMP280;60395;52.020;113.548;2022-07-17T01:00:22;92080.34;;;36.96
72405;BMP280;60395;52.020;113.548;2022-07-17T01:03:25;92083.00;;;35.54
72405;BMP280;60395;52.020;113.548;2022-07-17T01:06:28;92075.22;;;34.12
72405;BMP280;60395;52.020;113.548;2022-07-17T01:09:32;92083.66;;;32.76
72405;BMP280;60395;52.020;113.548;2022-07-17T01:12:36;92082.88;;;31.72
72405;BMP280;60395;52.020;113.548;2022-07-17T01:15:40;92082.72;;;30.95
72405;BMP280;60395;52.020;113.548;2022-07-17T01:18:43;92086.72;;;30.09
72405;BMP280;60395;52.020;113.548;2022-07-17T01:21:49;92078.31;;;29.54
72405;BMP280;60395;52.020;113.548;2022-07-17T01:24:52;92086.00;;;28.86
72405;BMP280;60395;52.020;113.548;2022-07-17T01:27:55;92082.38;;;28.35
72405;BMP280;60395;52.020;113.548;2022-07-17T01:31:00;92087.00;;;28.02
72405;BMP280;60395;52.020;113.548;2022-07-17T01:34:07;92089.66;;;27.61
72405;BMP280;60395;52.020;113.548;2022-07-17T01:37:10;92084.84;;;27.27
72405;BMP280;60395;52.020;113.548;2022-07-17T01:40:14;92095.31;;;27.15
72405;BMP280;60395;52.020;113.548;2022-07-17T01:43:17;92092.31;;;27.04
72405;BMP280;60395;52.020;113.548;2022-07-17T01:46:21;92088.94;;;26.97
72405;BMP280;60395;52.020;113.548;2022-07-17T01:49:24;92088.44;;;26.88
72405;BMP280;60395;52.020;113.548;2022-07-17T01:52:27;92083.09;;;26.95
72405;BMP280;60395;52.020;113.548;2022-07-17T01:55:30;92077.34;;;26.99
72405;BMP280;60395;52.020;113.548;2022-07-17T01:58:34;92082.88;;;26.90
72405;BMP280;60395;52.020;113.548;2022-07-17T02:01:37;92078.69;;;26.85
72405;BMP280;60395;52.020;113.548;2022-07-17T02:04:40;92074.41;;;26.73
72405;BMP280;60395;52.020;113.548;2022-07-17T02:07:46;92078.41;;;26.59
72405;BMP280;60395;52.020;113.548;2022-07-17T02:10:50;92081.59;;;26.46
72405;BMP280;60395;52.020;113.548;2022-07-17T02:13:53;92081.59;;;26.46
72405;BMP280;60395;52.020;113.548;2022-07-17T02:16:56;92079.44;;;26.40
72405;BMP280;60395;52.020;113.548;2022-07-17T02:19:59;92074.88;;;26.38
72405;BMP280;60395;52.020;113.548;2022-07-17T02:23:02;92083.03;;;26.45
72405;BMP280;60395;52.020;113.548;2022-07-17T02:26:05;92089.03;;;26.46
72405;BMP280;60395;52.020;113.548;2022-07-17T02:29:08;92090.72;;;26.49
72405;BMP280;60395;52.020;113.548;2022-07-17T02:32:12;92093.69;;;26.54
72405;BMP280;60395;52.020;113.548;2022-07-17T02:35:15;92086.78;;;26.48
72405;BMP280;60395;52.020;113.548;2022-07-17T02:38:18;92087.06;;;26.53
72405;BMP280;60395;52.020;113.548;2022-07-17T02:41:21;92093.38;;;26.43
72405;BMP280;60395;52.020;113.548;2022-07-17T02:44:24;92087.00;;;26.31
72405;BMP280;60395;52.020;113.548;2022-07-17T02:47:29;92094.00;;;26.28
72405;BMP280;60395;52.020;113.548;2022-07-17T02:50:33;92077.41;;;26.25
72405;BMP280;60395;52.020;113.548;2022-07-17T02:53:36;92085.03;;;26.23
72405;BMP280;60395;52.020;113.548;2022-07-17T02:56:40;92084.94;;;26.31
72405;BMP280;60395;52.020;113.548;2022-07-17T02:59:43;92075.94;;;26.42
72405;BMP280;60395;52.020;113.548;2022-07-17T03:02:46;92070.19;;;26.46
72405;BMP280;60395;52.020;113.548;2022-07-17T03:05:50;92059.66;;;26.50
72405;BMP280;60395;52.020;113.548;2022-07-17T03:08:53;92067.00;;;26.58
72405;BMP280;60395;52.020;113.548;2022-07-17T03:11:56;92066.00;;;26.62
72405;BMP280;60395;52.020;113.548;2022-07-17T03:14:59;92065.44;;;26.68
72405;BMP280;60395;52.020;113.548;2022-07-17T03:18:03;92059.66;;;26.50
72405;BMP280;60395;52.020;113.548;2022-07-17T03:21:06;92060.50;;;26.33
72405;BMP280;60395;52.020;113.548;2022-07-17T03:24:09;92054.44;;;26.26
72405;BMP280;60395;52.020;113.548;2022-07-17T03:27:12;92046.50;;;26.40
72405;BMP280;60395;52.020;113.548;2022-07-17T03:30:15;92047.81;;;26.47
72405;BMP280;60395;52.020;113.548;2022-07-17T03:33:19;92050.16;;;26.51
72405;BMP280;60395;52.020;113.548;2022-07-17T03:36:22;92050.09;;;26.66
72405;BMP280;60395;52.020;113.548;2022-07-17T03:39:25;92042.28;;;26.71
72405;BMP280;60395;52.020;113.548;2022-07-17T03:42:30;92040.25;;;26.78
72405;BMP280;60395;52.020;113.548;2022-07-17T03:45:33;92041.94;;;27.03
72405;BMP280;60395;52.020;113.548;2022-07-17T03:48:36;92042.91;;;27.21
72405;BMP280;60395;52.020;113.548;2022-07-17T03:51:39;92041.97;;;27.31
72405;BMP280;60395;52.020;113.548;2022-07-17T03:54:43;92032.28;;;27.12
72405;BMP280;60395;52.020;113.548;2022-07-17T03:57:46;92032.34;;;26.97
72405;BMP280;60395;52.020;113.548;2022-07-17T04:00:49;92035.91;;;27.02
72405;BMP280;60395;52.020;113.548;2022-07-17T04:03:52;92026.47;;;27.16
72405;BMP280;60395;52.020;113.548;2022-07-17T04:06:55;92032.56;;;27.23
72405;BMP280;60395;52.020;113.548;2022-07-17T04:09:59;92031.47;;;27.20
72405;BMP280;60395;52.020;113.548;2022-07-17T04:13:02;92025.94;;;27.29
72405;BMP280;60395;52.020;113.548;2022-07-17T04:16:05;92025.78;;;27.31
72405;BMP280;60395;52.020;113.548;2022-07-17T04:19:09;92017.72;;;27.38
72405;BMP280;60395;52.020;113.548;2022-07-17T04:22:12;92003.09;;;27.56
72405;BMP280;60395;52.020;113.548;2022-07-17T04:25:16;92011.69;;;27.72
72405;BMP280;60395;52.020;113.548;2022-07-17T04:28:19;91998.41;;;27.76
72405;BMP280;60395;52.020;113.548;2022-07-17T04:31:22;91996.56;;;27.81
72405;BMP280;60395;52.020;113.548;2022-07-17T04:34:25;92004.44;;;27.77
72405;BMP280;60395;52.020;113.548;2022-07-17T04:37:29;92002.47;;;27.56
72405;BMP280;60395;52.020;113.548;2022-07-17T04:40:34;91991.28;;;27.60
72405;BMP280;60395;52.020;113.548;2022-07-17T04:43:37;91985.75;;;27.68
72405;BMP280;60395;52.020;113.548;2022-07-17T04:46:40;91994.56;;;27.95
72405;BMP280;60395;52.020;113.548;2022-07-17T04:49:43;91989.00;;;28.10
72405;BMP280;60395;52.020;113.548;2022-07-17T04:52:47;91990.47;;;28.16
72405;BMP280;60395;52.020;113.548;2022-07-17T04:55:50;91980.88;;;28.03
72405;BMP280;60395;52.020;113.548;2022-07-17T04:58:53;91981.44;;;27.84
72405;BMP280;60395;52.020;113.548;2022-07-17T05:01:56;91974.22;;;27.55
72405;BMP280;60395;52.020;113.548;2022-07-17T05:05:00;91972.47;;;27.38
72405;BMP280;60395;52.020;113.548;2022-07-17T05:08:03;91980.78;;;27.36
72405;BMP280;60395;52.020;113.548;2022-07-17T05:11:06;91972.72;;;27.43
72405;BMP280;60395;52.020;113.548;2022-07-17T05:14:09;91966.31;;;27.46
72405;BMP280;60395;52.020;113.548;2022-07-17T05:17:12;91971.13;;;27.52
72405;BMP280;60395;52.020;113.548;2022-07-17T05:20:15;91962.47;;;27.65
72405;BMP280;60395;52.020;113.548;2022-07-17T05:23:18;91959.56;;;27.67
72405;BMP280;60395;52.020;113.548;2022-07-17T05:26:22;91947.03;;;27.50
72405;BMP280;60395;52.020;113.548;2022-07-17T05:29:25;91954.09;;;27.54
72405;BMP280;60395;52.020;113.548;2022-07-17T05:32:28;91960.34;;;27.59
72405;BMP280;60395;52.020;113.548;2022-07-17T05:35:31;91957.88;;;27.63
72405;BMP280;60395;52.020;113.548;2022-07-17T05:38:35;91958.31;;;27.66
72405;BMP280;60395;52.020;113.548;2022-07-17T05:41:38;91952.72;;;27.68
72405;BMP280;60395;52.020;113.548;2022-07-17T05:44:41;91956.22;;;27.66
72405;BMP280;60395;52.020;113.548;2022-07-17T05:47:44;91952.09;;;27.67
72405;BMP280;60395;52.020;113.548;2022-07-17T05:50:47;91943.19;;;27.75
72405;BMP280;60395;52.020;113.548;2022-07-17T05:53:51;91940.97;;;27.97
72405;BMP280;60395;52.020;113.548;2022-07-17T05:56:54;91938.78;;;28.26
72405;BMP280;60395;52.020;113.548;2022-07-17T05:59:57;91936.31;;;28.44
72405;BMP280;60395;52.020;113.548;2022-07-17T06:03:00;91925.06;;;28.54
72405;BMP280;60395;52.020;113.548;2022-07-17T06:06:03;91927.78;;;28.54
72405;BMP280;60395;52.020;113.548;2022-07-17T06:09:07;91924.47;;;28.54
72405;BMP280;60395;52.020;113.548;2022-07-17T06:12:10;91919.88;;;28.46
72405;BMP280;60395;52.020;113.548;2022-07-17T06:15:13;91931.72;;;28.49
72405;BMP280;60395;52.020;113.548;2022-07-17T06:18:16;91921.13;;;28.60
72405;BMP280;60395;52.020;113.548;2022-07-17T06:21:19;91921.13;;;28.73
72405;BMP280;60395;52.020;113.548;2022-07-17T06:24:23;91925.06;;;28.87
72405;BMP280;60395;52.020;113.548;2022-07-17T06:27:26;91919.47;;;28.89
72405;BMP280;60395;52.020;113.548;2022-07-17T06:30:29;91918.66;;;28.77
72405;BMP280;60395;52.020;113.548;2022-07-17T06:33:32;91915.72;;;28.73
72405;BMP280;60395;52.020;113.548;2022-07-17T06:36:35;91915.72;;;28.73
72405;BMP280;60395;52.020;113.548;2022-07-17T06:39:39;91915.53;;;28.68
72405;BMP280;60395;52.020;113.548;2022-07-17T06:42:42;91915.53;;;28.55
72405;BMP280;60395;52.020;113.548;2022-07-17T06:45:45;91915.09;;;28.46
72405;BMP280;60395;52.020;113.548;2022-07-17T06:48:48;91909.91;;;28.38
72405;BMP280;60395;52.020;113.548;2022-07-17T06:51:54;91903.69;;;28.46
72405;BMP280;60395;52.020;113.548;2022-07-17T06:54:57;91903.88;;;28.57
72405;BMP280;60395;52.020;113.548;2022-07-17T06:58:00;91906.56;;;28.70
72405;BMP280;60395;52.020;113.548;2022-07-17T07:01:03;91901.19;;;28.83
72405;BMP280;60395;52.020;113.548;2022-07-17T07:04:07;91900.53;;;28.76
72405;BMP280;60395;52.020;113.548;2022-07-17T07:07:11;91900.97;;;28.52
72405;BMP280;60395;52.020;113.548;2022-07-17T07:10:14;91897.63;;;28.13
72405;BMP280;60395;52.020;113.548;2022-07-17T07:13:17;91885.75;;;27.90
72405;BMP280;60395;52.020;113.548;2022-07-17T07:16:20;91893.63;;;27.92
72405;BMP280;60395;52.020;113.548;2022-07-17T07:19:23;91892.38;;;27.84
72405;BMP280;60395;52.020;113.548;2022-07-17T07:22:27;91893.94;;;27.55
72405;BMP280;60395;52.020;113.548;2022-07-17T07:25:30;91885.97;;;27.34
72405;BMP280;60395;52.020;113.548;2022-07-17T07:28:34;91891.00;;;27.03
72405;BMP280;60395;52.020;113.548;2022-07-17T07:31:37;91885.78;;;27.01
72405;BMP280;60395;52.020;113.548;2022-07-17T07:34:40;91888.38;;;27.16
72405;BMP280;60395;52.020;113.548;2022-07-17T07:37:43;91884.06;;;27.32
72405;BMP280;60395;52.020;113.548;2022-07-17T07:40:46;91881.69;;;27.50
72405;BMP280;60395;52.020;113.548;2022-07-17T07:43:49;91885.66;;;27.57
72405;BMP280;60395;52.020;113.548;2022-07-17T07:46:53;91880.88;;;27.58
72405;BMP280;60395;52.020;113.548;2022-07-17T07:49:56;91881.75;;;27.69
72405;BMP280;60395;52.020;113.548;2022-07-17T07:52:59;91883.22;;;27.81
72405;BMP280;60395;52.020;113.548;2022-07-17T07:56:02;91879.31;;;27.93
72405;BMP280;60395;52.020;113.548;2022-07-17T07:59:05;91882.03;;;28.06
72405;BMP280;60395;52.020;113.548;2022-07-17T08:02:08;91877.91;;;28.21
72405;BMP280;60395;52.020;113.548;2022-07-17T08:05:12;91874.78;;;28.18
72405;BMP280;60395;52.020;113.548;2022-07-17T08:08:15;91876.03;;;28.19
72405;BMP280;60395;52.020;113.548;2022-07-17T08:11:18;91874.56;;;28.20
72405;BMP280;60395;52.020;113.548;2022-07-17T08:14:21;91874.34;;;28.02
72405;BMP280;60395;52.020;113.548;2022-07-17T08:17:24;91869.94;;;27.79
72405;BMP280;60395;52.020;113.548;2022-07-17T08:20:27;91874.22;;;27.50
72405;BMP280;60395;52.020;113.548;2022-07-17T08:23:30;91868.75;;;27.31
72405;BMP280;60395;52.020;113.548;2022-07-17T08:26:33;91872.63;;;27.18
72405;BMP280;60395;52.020;113.548;2022-07-17T08:29:37;91868.63;;;27.11
72405;BMP280;60395;52.020;113.548;2022-07-17T08:33:01;91878.25;;;27.23
72405;BMP280;60395;52.020;113.548;2022-07-17T08:36:04;91869.47;;;27.57
72405;BMP280;60395;52.020;113.548;2022-07-17T08:39:07;91867.38;;;27.51
72405;BMP280;60395;52.020;113.548;2022-07-17T08:42:10;91857.47;;;27.69
72405;BMP280;60395;52.020;113.548;2022-07-17T08:45:19;91853.78;;;27.86
72405;BMP280;60395;52.020;113.548;2022-07-17T08:48:26;91851.91;;;27.97
72405;BMP280;60395;52.020;113.548;2022-07-17T08:51:31;91860.66;;;28.04
72405;BMP280;60395;52.020;113.548;2022-07-17T08:54:35;91858.16;;;28.09
72405;BMP280;60395;52.020;113.548;2022-07-17T08:57:40;91856.50;;;28.19
72405;BMP280;60395;52.020;113.548;2022-07-17T09:00:47;91854.66;;;28.24
72405;BMP280;60395;52.020;113.548;2022-07-17T09:03:57;91852.78;;;28.29
72405;BMP280;60395;52.020;113.548;2022-07-17T09:07:02;91859.00;;;28.21
72405;BMP280;60395;52.020;113.548;2022-07-17T09:10:06;91858.38;;;28.13
72405;BMP280;60395;52.020;113.548;2022-07-17T09:13:20;91860.84;;;28.09
72405;BMP280;60395;52.020;113.548;2022-07-17T09:16:26;91860.00;;;27.91
72405;BMP280;60395;52.020;113.548;2022-07-17T09:19:40;91859.41;;;27.90
72405;BMP280;60395;52.020;113.548;2022-07-17T09:22:43;91855.41;;;27.83
72405;BMP280;60395;52.020;113.548;2022-07-17T09:25:55;91857.50;;;27.82
72405;BMP280;60395;52.020;113.548;2022-07-17T09:29:00;91852.28;;;27.74
72405;BMP280;60395;52.020;113.548;2022-07-17T09:32:04;91864.50;;;27.66
72405;BMP280;60395;52.020;113.548;2022-07-17T09:35:11;91867.00;;;27.62
72405;BMP280;60395;52.020;113.548;2022-07-17T09:38:38;91859.06;;;27.47
72405;BMP280;60395;52.020;113.548;2022-07-17T09:41:41;91858.09;;;27.15
72405;BMP280;60395;52.020;113.548;2022-07-17T09:44:57;91866.75;;;27.03
72405;BMP280;60395;52.020;113.548;2022-07-17T09:48:01;91865.81;;;26.85
72405;BMP280;60395;52.020;113.548;2022-07-17T09:51:05;91859.09;;;26.71
72405;BMP280;60395;52.020;113.548;2022-07-17T09:54:10;91853.41;;;26.60
72405;BMP280;60395;52.020;113.548;2022-07-17T09:57:16;91858.88;;;26.45
72405;BMP280;60395;52.020;113.548;2022-07-17T10:00:19;91858.56;;;26.27
72405;BMP280;60395;52.020;113.548;2022-07-17T10:03:25;91872.06;;;26.12
72405;BMP280;60395;52.020;113.548;2022-07-17T10:06:29;91875.00;;;25.95
72405;BMP280;60395;52.020;113.548;2022-07-17T10:09:33;91871.44;;;25.90
72405;BMP280;60395;52.020;113.548;2022-07-17T10:12:38;91877.44;;;25.90
72405;BMP280;60395;52.020;113.548;2022-07-17T10:15:42;91869.94;;;25.84
72405;BMP280;60395;52.020;113.548;2022-07-17T10:18:45;91873.38;;;25.76
72405;BMP280;60395;52.020;113.548;2022-07-17T10:21:53;91876.69;;;25.77
72405;BMP280;60395;52.020;113.548;2022-07-17T10:25:04;91872.94;;;25.74
72405;BMP280;60395;52.020;113.548;2022-07-17T10:28:07;91867.91;;;25.70
72405;BMP280;60395;52.020;113.548;2022-07-17T10:31:22;91875.34;;;25.69
72405;BMP280;60395;52.020;113.548;2022-07-17T10:34:37;91873.03;;;25.65
72405;BMP280;60395;52.020;113.548;2022-07-17T10:37:41;91877.72;;;25.58
72405;BMP280;60395;52.020;113.548;2022-07-17T10:40:45;91875.84;;;25.57
72405;BMP280;60395;52.020;113.548;2022-07-17T10:43:49;91872.09;;;25.53
72405;BMP280;60395;52.020;113.548;2022-07-17T10:46:53;91873.25;;;25.48
72405;BMP280;60395;52.020;113.548;2022-07-17T10:49:57;91879.00;;;25.44
72405;BMP280;60395;52.020;113.548;2022-07-17T10:53:15;91877.94;;;25.41
72405;BMP280;60395;52.020;113.548;2022-07-17T10:56:26;91883.59;;;25.30
72405;BMP280;60395;52.020;113.548;2022-07-17T10:59:30;91883.69;;;25.22
72405;BMP280;60395;52.020;113.548;2022-07-17T11:02:34;91889.97;;;25.27
72405;BMP280;60395;52.020;113.548;2022-07-17T11:05:39;91892.75;;;25.03
72405;BMP280;60395;52.020;113.548;2022-07-17T11:08:51;91892.09;;;24.88
72405;BMP280;60395;52.020;113.548;2022-07-17T11:11:54;91897.19;;;24.68
72405;BMP280;60395;52.020;113.548;2022-07-17T11:15:04;91889.06;;;24.53
72405;BMP280;60395;52.020;113.548;2022-07-17T11:18:26;91891.75;;;24.38
72405;BMP280;60395;52.020;113.548;2022-07-17T11:21:29;91898.13;;;24.26
72405;BMP280;60395;52.020;113.548;2022-07-17T11:24:45;91897.84;;;24.21
72405;BMP280;60395;52.020;113.548;2022-07-17T11:27:49;91898.69;;;24.11
72405;BMP280;60395;52.020;113.548;2022-07-17T11:30:52;91911.22;;;24.06
72405;BMP280;60395;52.020;113.548;2022-07-17T11:34:01;91907.13;;;23.99
72405;BMP280;60395;52.020;113.548;2022-07-17T11:37:07;91906.56;;;23.89
72405;BMP280;60395;52.020;113.548;2022-07-17T11:40:11;91913.41;;;23.80
72405;BMP280;60395;52.020;113.548;2022-07-17T11:43:14;91911.53;;;23.70
72405;BMP280;60395;52.020;113.548;2022-07-17T11:46:18;91911.25;;;23.65
72405;BMP280;60395;52.020;113.548;2022-07-17T11:49:32;91917.56;;;23.62
72405;BMP280;60395;52.020;113.548;2022-07-17T11:52:45;91915.72;;;23.52
72405;BMP280;60395;52.020;113.548;2022-07-17T11:55:51;91917.97;;;23.41
72405;BMP280;60395;52.020;113.548;2022-07-17T11:58:54;91912.81;;;23.22
72405;BMP280;60395;52.020;113.548;2022-07-17T12:02:14;91915.84;;;23.09
72405;BMP280;60395;52.020;113.548;2022-07-17T12:05:28;91917.28;;;22.91
72405;BMP280;60395;52.020;113.548;2022-07-17T12:08:32;91922.81;;;22.72
72405;BMP280;60395;52.020;113.548;2022-07-17T12:11:46;91921.22;;;22.58
72405;BMP280;60395;52.020;113.548;2022-07-17T12:14:54;91923.41;;;22.38
72405;BMP280;60395;52.020;113.548;2022-07-17T12:17:58;91923.38;;;22.12
72405;BMP280;60395;52.020;113.548;2022-07-17T12:21:03;91927.91;;;21.97
72405;BMP280;60395;52.020;113.548;2022-07-17T12:24:08;91921.25;;;21.79
72405;BMP280;60395;52.020;113.548;2022-07-17T12:27:16;91918.69;;;21.68
72405;BMP280;60395;52.020;113.548;2022-07-17T12:30:20;91917.69;;;21.54
72405;BMP280;60395;52.020;113.548;2022-07-17T12:33:23;91916.66;;;21.41
72405;BMP280;60395;52.020;113.548;2022-07-17T12:36:26;91920.09;;;21.31
72405;BMP280;60395;52.020;113.548;2022-07-17T12:39:30;91926.00;;;21.23
72405;BMP280;60395;52.020;113.548;2022-07-17T12:42:34;91933.97;;;21.14
72405;BMP280;60395;52.020;113.548;2022-07-17T12:45:37;91930.47;;;21.07
72405;BMP280;60395;52.020;113.548;2022-07-17T12:48:41;91933.09;;;20.98
72405;BMP280;60395;52.020;113.548;2022-07-17T12:51:45;91929.78;;;20.98
72405;BMP280;60395;52.020;113.548;2022-07-17T12:54:48;91939.13;;;20.88
72405;BMP280;60395;52.020;113.548;2022-07-17T12:57:51;91941.25;;;20.77
72405;BMP280;60395;52.020;113.548;2022-07-17T13:00:55;91931.75;;;20.70
72405;BMP280;60395;52.020;113.548;2022-07-17T13:03:58;91930.91;;;20.63
72405;BMP280;60395;52.020;113.548;2022-07-17T13:07:01;91925.38;;;20.56
72405;BMP280;60395;52.020;113.548;2022-07-17T13:10:05;91929.22;;;20.49
72405;BMP280;60395;52.020;113.548;2022-07-17T13:13:08;91939.56;;;20.44
72405;BMP280;60395;52.020;113.548;2022-07-17T13:16:12;91942.13;;;20.36
72405;BMP280;60395;52.020;113.548;2022-07-17T13:19:16;91945.50;;;20.25
72405;BMP280;60395;52.020;113.548;2022-07-17T13:22:19;91950.75;;;20.17
72405;BMP280;60395;52.020;113.548;2022-07-17T13:25:22;91941.38;;;20.07
72405;BMP280;60395;52.020;113.548;2022-07-17T13:28:25;91944.44;;;20.01
72405;BMP280;60395;52.020;113.548;2022-07-17T13:31:28;91942.84;;;19.96
72405;BMP280;60395;52.020;113.548;2022-07-17T13:34:32;91936.50;;;19.91
72405;BMP280;60395;52.020;113.548;2022-07-17T13:37:35;91935.38;;;19.88
72405;BMP280;60395;52.020;113.548;2022-07-17T13:40:39;91930.78;;;19.86
72405;BMP280;60395;52.020;113.548;2022-07-17T13:43:42;91938.69;;;19.78
72405;BMP280;60395;52.020;113.548;2022-07-17T13:46:45;91935.19;;;19.60
72405;BMP280;60395;52.020;113.548;2022-07-17T13:49:49;91933.81;;;19.50
72405;BMP280;60395;52.020;113.548;2022-07-17T13:52:52;91932.16;;;19.45
72405;BMP280;60395;52.020;113.548;2022-07-17T13:55:55;91926.84;;;19.45
72405;BMP280;60395;52.020;113.548;2022-07-17T13:58:59;91928.88;;;19.44
72405;BMP280;60395;52.020;113.548;2022-07-17T14:02:02;91939.53;;;19.44
72405;BMP280;60395;52.020;113.548;2022-07-17T14:05:07;91935.22;;;19.39
72405;BMP280;60395;52.020;113.548;2022-07-17T14:08:11;91936.50;;;19.29
72405;BMP280;60395;52.020;113.548;2022-07-17T14:11:14;91933.09;;;19.31
72405;BMP280;60395;52.020;113.548;2022-07-17T14:14:17;91932.94;;;19.33
72405;BMP280;60395;52.020;113.548;2022-07-17T14:17:20;91937.78;;;19.30
72405;BMP280;60395;52.020;113.548;2022-07-17T14:20:23;91924.84;;;19.24
72405;BMP280;60395;52.020;113.548;2022-07-17T14:23:26;91934.22;;;19.23
72405;BMP280;60395;52.020;113.548;2022-07-17T14:26:29;91936.38;;;19.10
72405;BMP280;60395;52.020;113.548;2022-07-17T14:29:33;91935.00;;;19.01
72405;BMP280;60395;52.020;113.548;2022-07-17T14:32:37;91928.41;;;19.00
72405;BMP280;60395;52.020;113.548;2022-07-17T14:35:41;91929.16;;;18.98
72405;BMP280;60395;52.020;113.548;2022-07-17T14:38:44;91940.31;;;19.01
72405;BMP280;60395;52.020;113.548;2022-07-17T14:41:47;91927.78;;;18.99
72405;BMP280;60395;52.020;113.548;2022-07-17T14:44:50;91935.25;;;18.96
72405;BMP280;60395;52.020;113.548;2022-07-17T14:47:53;91941.44;;;18.93
72405;BMP280;60395;52.020;113.548;2022-07-17T14:50:57;91941.22;;;18.86
72405;BMP280;60395;52.020;113.548;2022-07-17T14:54:00;91948.66;;;18.84
72405;BMP280;60395;52.020;113.548;2022-07-17T14:57:03;91946.91;;;18.80
72405;BMP280;60395;52.020;113.548;2022-07-17T15:00:07;91946.00;;;18.73
72405;BMP280;60395;52.020;113.548;2022-07-17T15:03:11;91945.34;;;18.62
72405;BMP280;60395;52.020;113.548;2022-07-17T15:06:14;91940.94;;;18.59
72405;BMP280;60395;52.020;113.548;2022-07-17T15:09:17;91943.59;;;18.59
72405;BMP280;60395;52.020;113.548;2022-07-17T15:12:20;91939.75;;;18.56
72405;BMP280;60395;52.020;113.548;2022-07-17T15:15:23;91933.31;;;18.53
72405;BMP280;60395;52.020;113.548;2022-07-17T15:18:27;91944.44;;;18.55
72405;BMP280;60395;52.020;113.548;2022-07-17T15:21:30;91943.44;;;18.61
72405;BMP280;60395;52.020;113.548;2022-07-17T15:24:53;91940.03;;;18.62
72405;BMP280;60395;52.020;113.548;2022-07-17T15:27:57;91946.75;;;18.61
72405;BMP280;60395;52.020;113.548;2022-07-17T15:31:00;91943.34;;;18.63
72405;BMP280;60395;52.020;113.548;2022-07-17T15:34:03;91945.84;;;18.65
72405;BMP280;60395;52.020;113.548;2022-07-17T15:37:06;91940.69;;;18.63
72405;BMP280;60395;52.020;113.548;2022-07-17T15:40:10;91940.28;;;18.58
72405;BMP280;60395;52.020;113.548;2022-07-17T15:43:13;91944.59;;;18.53
72405;BMP280;60395;52.020;113.548;2022-07-17T15:46:16;91934.94;;;18.48
72405;BMP280;60395;52.020;113.548;2022-07-17T15:49:20;91929.47;;;18.39
72405;BMP280;60395;52.020;113.548;2022-07-17T15:52:23;91927.16;;;18.33
72405;BMP280;60395;52.020;113.548;2022-07-17T15:55:27;91934.28;;;18.26
72405;BMP280;60395;52.020;113.548;2022-07-17T15:58:30;91928.41;;;18.23
72405;BMP280;60395;52.020;113.548;2022-07-17T16:01:33;91927.38;;;18.18
72405;BMP280;60395;52.020;113.548;2022-07-17T16:04:37;91923.94;;;18.09
72405;BMP280;60395;52.020;113.548;2022-07-17T16:07:40;91936.97;;;18.03
72405;BMP280;60395;52.020;113.548;2022-07-17T16:10:43;91933.91;;;17.98
72405;BMP280;60395;52.020;113.548;2022-07-17T16:13:46;91937.66;;;17.91
72405;BMP280;60395;52.020;113.548;2022-07-17T16:16:49;91935.97;;;17.85
72405;BMP280;60395;52.020;113.548;2022-07-17T16:19:52;91929.75;;;17.78
72405;BMP280;60395;52.020;113.548;2022-07-17T16:22:56;91928.97;;;17.69
72405;BMP280;60395;52.020;113.548;2022-07-17T16:25:59;91934.59;;;17.63
72405;BMP280;60395;52.020;113.548;2022-07-17T16:29:02;91937.50;;;17.59
72405;BMP280;60395;52.020;113.548;2022-07-17T16:32:06;91933.16;;;17.53
72405;BMP280;60395;52.020;113.548;2022-07-17T16:35:10;91924.63;;;17.40
72405;BMP280;60395;52.020;113.548;2022-07-17T16:38:14;91926.44;;;17.31
72405;BMP280;60395;52.020;113.548;2022-07-17T16:41:19;91938.06;;;17.26
72405;BMP280;60395;52.020;113.548;2022-07-17T16:44:23;91935.59;;;17.22
72405;BMP280;60395;52.020;113.548;2022-07-17T16:47:27;91936.69;;;17.14
72405;BMP280;60395;52.020;113.548;2022-07-17T16:50:30;91938.78;;;17.12
72405;BMP280;60395;52.020;113.548;2022-07-17T16:53:33;91936.50;;;17.06
72405;BMP280;60395;52.020;113.548;2022-07-17T16:56:36;91935.78;;;16.94
72405;BMP280;60395;52.020;113.548;2022-07-17T16:59:41;91925.94;;;16.80
72405;BMP280;60395;52.020;113.548;2022-07-17T17:02:44;91934.94;;;16.73
72405;BMP280;60395;52.020;113.548;2022-07-17T17:05:47;91936.13;;;16.63
72405;BMP280;60395;52.020;113.548;2022-07-17T17:08:50;91933.78;;;16.57
72405;BMP280;60395;52.020;113.548;2022-07-17T17:11:53;91931.88;;;16.56